createdAt,value
2023-03-20T00:01:17.072Z,99286.56
2023-03-20T00:03:50.083Z,99279.81
2023-03-20T00:06:25.480Z,99280.19
2023-03-20T00:08:58.356Z,99278.13
2023-03-20T00:11:34.028Z,99282.66
2023-03-20T00:14:09.603Z,99282.81
2023-03-20T00:16:46.485Z,99282.66
2023-03-20T00:19:20.970Z,99281.88
2023-03-20T00:21:55.364Z,99276.34
2023-03-20T00:24:28.255Z,99281.13
2023-03-20T00:27:02.710Z,99276.69
2023-03-20T00:29:35.684Z,99273.34
2023-03-20T00:32:13.890Z,99266.88
2023-03-20T00:34:47.123Z,99260.03
2023-03-20T00:37:19.942Z,99264.31
2023-03-20T00:39:52.645Z,99271.38
2023-03-20T00:42:25.985Z,99274.06
2023-03-20T00:44:59.721Z,99272.28
2023-03-20T00:47:38.775Z,99277.00
2023-03-20T00:50:17.703Z,99274.34
2023-03-20T00:52:51.606Z,99277.25
2023-03-20T00:55:26.846Z,99270.50
2023-03-20T00:58:01.708Z,99270.97
2023-03-20T01:00:40.485Z,99277.19
2023-03-20T01:03:18.822Z,99279.66
2023-03-20T01:05:54.629Z,99276.78
2023-03-20T01:08:27.698Z,99277.94
2023-03-20T01:11:00.679Z,99270.50
2023-03-20T01:13:33.943Z,99282.03
2023-03-20T01:16:08.108Z,99284.47
2023-03-20T01:18:42.369Z,99298.94
2023-03-20T01:21:15.294Z,99294.53
2023-03-20T01:23:48.466Z,99300.94
2023-03-20T01:26:32.110Z,99298.03
2023-03-20T01:29:05.877Z,99298.44
2023-03-20T01:31:39.737Z,99306.94
2023-03-20T01:34:16.354Z,99297.41
2023-03-20T01:36:51.941Z,99307.97
2023-03-20T01:39:33.544Z,99310.47
2023-03-20T01:42:07.640Z,99311.38
2023-03-20T01:44:41.132Z,99305.69
2023-03-20T01:47:18.078Z,99313.56
2023-03-20T01:50:26.694Z,99311.06
2023-03-20T01:53:13.325Z,99310.25
2023-03-20T01:55:55.557Z,99308.84
2023-03-20T01:58:36.208Z,99317.63
2023-03-20T02:01:13.693Z,99315.97
2023-03-20T02:03:51.912Z,99326.28
2023-03-20T02:06:29.340Z,99327.19
2023-03-20T02:09:22.478Z,99326.75
2023-03-20T02:11:57.217Z,99328.19
2023-03-20T02:14:31.685Z,99324.72
2023-03-20T02:17:18.024Z,99325.09
2023-03-20T02:20:08.060Z,99327.72
2023-03-20T02:23:18.462Z,99323.53
2023-03-20T02:26:34.245Z,99332.28
2023-03-20T02:29:42.546Z,99333.47
2023-03-20T02:32:53.404Z,99330.34
2023-03-20T02:36:01.664Z,99326.06
2023-03-20T02:38:54.348Z,99328.28
2023-03-20T02:41:31.609Z,99326.00
2023-03-20T02:44:09.856Z,99327.66
2023-03-20T02:46:52.732Z,99334.72
2023-03-20T02:49:51.451Z,99327.22
2023-03-20T02:52:35.000Z,99324.19
2023-03-20T02:55:17.858Z,99322.16
2023-03-20T02:57:59.888Z,99329.09
2023-03-20T03:00:36.904Z,99315.59
2023-03-20T03:03:18.514Z,99323.44
2023-03-20T03:05:55.657Z,99329.84
2023-03-20T03:08:35.009Z,99328.84
2023-03-20T03:11:10.709Z,99332.75
2023-03-20T03:13:48.016Z,99333.84
2023-03-20T03:16:25.513Z,99333.94
2023-03-20T03:19:06.558Z,99325.13
2023-03-20T03:21:42.377Z,99333.47
2023-03-20T03:24:40.214Z,99327.53
2023-03-20T03:27:21.275Z,99325.53
2023-03-20T03:29:58.482Z,99335.06
2023-03-20T03:32:35.804Z,99332.38
2023-03-20T03:35:16.227Z,99331.13
2023-03-20T03:37:56.575Z,99334.34
2023-03-20T03:40:37.186Z,99335.06
2023-03-20T03:43:19.877Z,99335.88
2023-03-20T03:45:56.914Z,99337.88
2023-03-20T03:48:36.123Z,99330.22
2023-03-20T03:51:14.179Z,99334.09
2023-03-20T03:54:03.054Z,99338.53
2023-03-20T03:56:39.712Z,99346.97
2023-03-20T03:59:21.826Z,99340.19
2023-03-20T04:01:57.593Z,99337.56
2023-03-20T04:04:33.066Z,99334.53
2023-03-20T04:07:05.974Z,99335.47
2023-03-20T04:09:39.201Z,99324.78
2023-03-20T04:12:34.323Z,99334.28
2023-03-20T04:15:09.999Z,99334.91
2023-03-20T04:17:43.360Z,99335.75
2023-03-20T04:20:17.701Z,99338.88
2023-03-20T04:22:52.481Z,99337.50
2023-03-20T04:25:27.521Z,99341.56
2023-03-20T04:28:01.754Z,99340.25
2023-03-20T04:31:08.771Z,99341.06
2023-03-20T04:34:00.036Z,99347.13
2023-03-20T04:36:49.543Z,99356.00
2023-03-20T04:39:24.251Z,99349.69
2023-03-20T04:41:57.286Z,99358.16
2023-03-20T04:44:30.248Z,99362.53
2023-03-20T04:47:04.804Z,99354.97
2023-03-20T04:49:39.730Z,99356.28
2023-03-20T04:52:12.708Z,99360.97
2023-03-20T04:54:48.065Z,99359.47
2023-03-20T04:57:20.845Z,99355.06
2023-03-20T04:59:54.077Z,99354.06
2023-03-20T05:02:28.404Z,99351.75
2023-03-20T05:05:01.468Z,99358.66
2023-03-20T05:07:34.518Z,99361.38
2023-03-20T05:10:12.751Z,99360.19
2023-03-20T05:12:53.176Z,99367.09
2023-03-20T05:15:47.844Z,99374.22
2023-03-20T05:18:45.158Z,99379.56
2023-03-20T05:21:31.730Z,99381.31
2023-03-20T05:24:23.239Z,99384.06
2023-03-20T05:27:07.807Z,99393.31
2023-03-20T05:29:55.720Z,99387.56
2023-03-20T05:33:01.342Z,99383.19
2023-03-20T05:35:55.573Z,99387.56
2023-03-20T05:38:39.344Z,99401.09
2023-03-20T05:41:31.281Z,99399.78
2023-03-20T05:44:16.769Z,99397.84
2023-03-20T05:47:01.207Z,99391.66
2023-03-20T05:49:52.612Z,99390.56
2023-03-20T05:52:44.327Z,99397.44
2023-03-20T05:55:27.054Z,99407.69
2023-03-20T05:58:23.216Z,99405.19
2023-03-20T06:01:08.099Z,99411.94
2023-03-20T06:04:04.437Z,99407.25
2023-03-20T06:06:55.920Z,99411.53
2023-03-20T06:09:31.688Z,99413.72
2023-03-20T06:12:04.882Z,99415.19
2023-03-20T06:14:37.721Z,99412.94
2023-03-20T06:17:13.646Z,99423.06
2023-03-20T06:19:47.662Z,99421.19
2023-03-20T06:22:20.802Z,99420.50
2023-03-20T06:24:57.002Z,99414.28
2023-03-20T06:27:35.842Z,99412.69
2023-03-20T06:30:11.591Z,99417.47
2023-03-20T06:32:47.432Z,99410.78
2023-03-20T06:35:22.886Z,99406.16
2023-03-20T06:37:57.030Z,99412.63
2023-03-20T06:40:34.128Z,99417.34
2023-03-20T06:43:07.368Z,99413.56
2023-03-20T06:45:49.474Z,99417.75
2023-03-20T06:48:31.452Z,99417.09
2023-03-20T06:51:07.824Z,99417.41
2023-03-20T06:53:48.191Z,99426.84
2023-03-20T06:56:26.157Z,99427.56
2023-03-20T06:58:59.630Z,99434.03
2023-03-20T07:01:32.548Z,99424.88
2023-03-20T07:04:06.057Z,99425.84
2023-03-20T07:06:44.902Z,99428.84
2023-03-20T07:09:18.992Z,99424.91
2023-03-20T07:11:53.762Z,99427.44
2023-03-20T07:14:26.717Z,99429.03
2023-03-20T07:17:03.839Z,99421.78
2023-03-20T07:19:38.406Z,99432.13
2023-03-20T07:22:21.929Z,99431.53
2023-03-20T07:24:55.708Z,99427.66
2023-03-20T07:27:32.084Z,99433.97
2023-03-20T07:30:06.156Z,99446.97
2023-03-20T07:32:40.797Z,99445.91
2023-03-20T07:35:14.018Z,99452.16
2023-03-20T07:37:48.446Z,99445.63
2023-03-20T07:40:21.561Z,99446.03
2023-03-20T07:43:02.415Z,99442.34
2023-03-20T07:46:05.082Z,99438.63
2023-03-20T07:48:39.374Z,99439.75
2023-03-20T07:51:12.415Z,99443.78
2023-03-20T07:53:45.176Z,99452.31
2023-03-20T07:56:18.030Z,99453.97
2023-03-20T07:58:52.590Z,99462.69
2023-03-20T08:01:25.920Z,99465.72
2023-03-20T08:03:59.945Z,99460.53
2023-03-20T08:06:32.884Z,99459.16
2023-03-20T08:09:06.024Z,99458.94
2023-03-20T08:11:38.860Z,99454.34
2023-03-20T08:14:13.070Z,99456.78
2023-03-20T08:16:45.999Z,99454.66
2023-03-20T08:19:18.868Z,99460.53
2023-03-20T08:21:52.467Z,99458.28
2023-03-20T08:24:25.303Z,99461.44
2023-03-20T08:26:58.220Z,99469.97
2023-03-20T08:29:32.469Z,99475.44
2023-03-20T08:32:05.725Z,99476.84
2023-03-20T08:34:38.602Z,99475.19
2023-03-20T08:37:12.500Z,99475.88
2023-03-20T08:39:45.745Z,99476.84
2023-03-20T08:42:18.627Z,99481.94
2023-03-20T08:44:52.742Z,99478.66
2023-03-20T08:47:26.496Z,99489.59
2023-03-20T08:49:59.259Z,99490.56
2023-03-20T08:52:32.870Z,99489.59
2023-03-20T08:55:08.083Z,99488.56
2023-03-20T08:57:41.546Z,99489.09
2023-03-20T09:00:19.176Z,99490.28
2023-03-20T09:02:52.303Z,99489.03
2023-03-20T09:05:25.241Z,99497.47
2023-03-20T09:07:58.029Z,99492.75
2023-03-20T09:10:31.273Z,99499.50
2023-03-20T09:13:23.495Z,99491.78
2023-03-20T09:15:58.517Z,99490.69
2023-03-20T09:18:31.556Z,99498.34
2023-03-20T09:21:04.874Z,99494.41
2023-03-20T09:23:37.645Z,99502.34
2023-03-20T09:26:10.437Z,99505.66
2023-03-20T09:28:43.306Z,99498.25
2023-03-20T09:31:17.417Z,99493.44
2023-03-20T09:33:50.644Z,99489.25
2023-03-20T09:36:23.456Z,99484.19
2023-03-20T09:38:56.353Z,99488.22
2023-03-20T09:41:48.965Z,99490.50
2023-03-20T09:44:45.672Z,99483.97
2023-03-20T09:47:26.747Z,99484.47
2023-03-20T09:50:22.228Z,99488.50
2023-03-20T09:53:00.926Z,99496.31
2023-03-20T09:55:38.090Z,99486.81
2023-03-20T09:58:16.202Z,99485.16
2023-03-20T10:00:49.706Z,99491.72
2023-03-20T10:03:27.689Z,99483.50
2023-03-20T10:06:03.524Z,99483.03
2023-03-20T10:08:38.983Z,99488.84
2023-03-20T10:11:32.411Z,99499.25
2023-03-20T10:14:22.198Z,99495.09
2023-03-20T10:17:10.441Z,99504.38
2023-03-20T10:19:50.354Z,99507.03
2023-03-20T10:22:26.314Z,99503.59
2023-03-20T10:25:07.505Z,99508.06
2023-03-20T10:27:44.045Z,99499.66
2023-03-20T10:30:29.402Z,99493.00
2023-03-20T10:33:26.582Z,99509.56
2023-03-20T10:36:15.597Z,99500.91
2023-03-20T10:38:55.895Z,99492.06
2023-03-20T10:41:33.414Z,99498.78
2023-03-20T10:44:11.832Z,99504.63
2023-03-20T10:46:47.749Z,99496.44
2023-03-20T10:49:29.954Z,99490.09
2023-03-20T10:52:06.998Z,99493.06
2023-03-20T10:54:43.688Z,99498.50
2023-03-20T10:57:23.570Z,99499.81
2023-03-20T10:59:58.244Z,99492.06
2023-03-20T11:02:32.657Z,99489.28
2023-03-20T11:05:21.135Z,99495.59
2023-03-20T11:08:04.235Z,99491.41
2023-03-20T11:10:38.801Z,99488.91
2023-03-20T11:13:19.662Z,99491.28
2023-03-20T11:15:53.442Z,99490.28
2023-03-20T11:18:27.413Z,99486.16
2023-03-20T11:21:03.206Z,99482.16
2023-03-20T11:23:37.729Z,99492.56
2023-03-20T11:26:15.111Z,99493.81
2023-03-20T11:28:51.180Z,99483.38
2023-03-20T11:31:30.889Z,99487.41
2023-03-20T11:34:22.781Z,99489.53
2023-03-20T11:37:09.803Z,99489.13
2023-03-20T11:39:54.816Z,99488.66
2023-03-20T11:42:29.454Z,99482.84
2023-03-20T11:45:04.305Z,99477.69
2023-03-20T11:47:37.678Z,99478.59
2023-03-20T11:50:27.088Z,99470.38
2023-03-20T11:53:01.742Z,99480.56
2023-03-20T11:55:36.976Z,99474.56
2023-03-20T11:58:18.027Z,99483.28
2023-03-20T12:00:53.879Z,99477.84
2023-03-20T12:03:42.173Z,99475.97
2023-03-20T12:06:18.517Z,99470.81
2023-03-20T12:09:00.121Z,99474.22
2023-03-20T12:11:44.612Z,99468.31
2023-03-20T12:14:25.447Z,99484.84
2023-03-20T12:17:09.178Z,99469.53
2023-03-20T12:19:43.873Z,99465.59
2023-03-20T12:22:23.722Z,99469.47
2023-03-20T12:25:04.230Z,99467.31
2023-03-20T12:27:40.103Z,99470.88
2023-03-20T12:30:19.159Z,99461.59
2023-03-20T12:33:00.320Z,99462.78
2023-03-20T12:35:37.674Z,99474.28
2023-03-20T12:38:24.240Z,99461.59
2023-03-20T12:41:05.802Z,99462.47
2023-03-20T12:43:49.041Z,99464.44
2023-03-20T12:46:31.669Z,99458.84
2023-03-20T12:49:13.966Z,99451.31
2023-03-20T12:51:59.521Z,99461.31
2023-03-20T12:54:45.394Z,99453.75
2023-03-20T12:57:29.564Z,99457.03
2023-03-20T13:00:19.155Z,99451.56
2023-03-20T13:03:05.994Z,99446.22
2023-03-20T13:05:46.909Z,99441.47
2023-03-20T13:08:37.288Z,99443.09
2023-03-20T13:11:18.974Z,99446.88
2023-03-20T13:13:57.832Z,99441.03
2023-03-20T13:16:43.938Z,99430.47
2023-03-20T13:19:27.081Z,99442.50
2023-03-20T13:22:07.047Z,99433.31
2023-03-20T13:24:46.085Z,99429.31
2023-03-20T13:27:32.855Z,99434.13
2023-03-20T13:30:18.450Z,99428.91
2023-03-20T13:33:04.627Z,99430.47
2023-03-20T13:35:47.019Z,99419.63
2023-03-20T13:38:23.836Z,99416.81
2023-03-20T13:41:01.781Z,99413.78
2023-03-20T13:43:39.208Z,99411.75
2023-03-20T13:46:16.120Z,99415.50
2023-03-20T13:48:53.154Z,99400.78
2023-03-20T13:51:34.690Z,99400.78
2023-03-20T13:54:17.115Z,99398.22
2023-03-20T13:56:57.624Z,99400.84
2023-03-20T13:59:41.578Z,99392.88
2023-03-20T14:02:29.153Z,99394.81
2023-03-20T14:05:07.685Z,99387.22
2023-03-20T14:07:44.388Z,99398.53
2023-03-20T14:10:37.814Z,99396.13
2023-03-20T14:13:18.294Z,99393.47
2023-03-20T14:15:56.029Z,99392.81
2023-03-20T14:18:29.730Z,99385.34
2023-03-20T14:21:12.346Z,99379.56
2023-03-20T14:23:50.679Z,99371.81
2023-03-20T14:26:27.891Z,99378.88
2023-03-20T14:29:02.820Z,99371.53
2023-03-20T14:31:38.397Z,99380.50
2023-03-20T14:34:17.615Z,99379.59
2023-03-20T14:36:58.856Z,99373.47
2023-03-20T14:39:43.236Z,99376.22
2023-03-20T14:42:25.756Z,99374.31
2023-03-20T14:45:20.427Z,99371.75
2023-03-20T14:48:02.105Z,99373.63
2023-03-20T14:50:40.639Z,99364.94
2023-03-20T14:53:19.821Z,99360.38
2023-03-20T14:56:04.330Z,99355.59
2023-03-20T14:58:47.530Z,99357.13
2023-03-20T15:01:27.646Z,99355.84
2023-03-20T15:04:06.865Z,99349.63
2023-03-20T15:06:46.451Z,99346.75
2023-03-20T15:09:22.909Z,99346.97
2023-03-20T15:11:59.870Z,99343.44
2023-03-20T15:14:42.589Z,99344.09
2023-03-20T15:17:21.352Z,99340.84
2023-03-20T15:20:02.344Z,99341.53
2023-03-20T15:22:35.560Z,99345.75
2023-03-20T15:25:17.591Z,99342.31
2023-03-20T15:27:51.913Z,99340.50
2023-03-20T15:30:25.908Z,99341.72
2023-03-20T15:32:59.406Z,99349.13
2023-03-20T15:35:32.608Z,99347.06
2023-03-20T15:38:08.191Z,99339.13
2023-03-20T15:40:50.547Z,99344.06
2023-03-20T15:43:26.130Z,99353.00
2023-03-20T15:46:16.844Z,99353.47
2023-03-20T15:48:50.968Z,99340.13
2023-03-20T15:51:27.663Z,99341.13
2023-03-20T15:54:01.816Z,99332.84
2023-03-20T15:56:42.787Z,99333.13
2023-03-20T15:59:18.459Z,99340.84
2023-03-20T16:01:54.479Z,99336.75
2023-03-20T16:04:28.933Z,99334.78
2023-03-20T16:07:03.237Z,99338.03
2023-03-20T16:09:44.211Z,99343.34
2023-03-20T16:12:19.715Z,99337.09
2023-03-20T16:14:52.930Z,99340.53
2023-03-20T16:17:27.184Z,99337.00
2023-03-20T16:19:59.929Z,99348.72
2023-03-20T16:22:34.422Z,99354.00
2023-03-20T16:25:13.702Z,99342.75
2023-03-20T16:27:52.161Z,99342.38
2023-03-20T16:30:27.456Z,99351.22
2023-03-20T16:33:02.609Z,99348.59
2023-03-20T16:35:40.476Z,99354.44
2023-03-20T16:38:23.450Z,99350.78
2023-03-20T16:40:58.408Z,99346.75
2023-03-20T16:43:33.114Z,99347.72
2023-03-20T16:46:07.737Z,99343.63
2023-03-20T16:48:43.121Z,99339.03
2023-03-20T16:51:21.710Z,99335.75
2023-03-20T16:53:57.506Z,99341.88
2023-03-20T16:56:34.771Z,99346.75
2023-03-20T16:59:10.848Z,99348.09
2023-03-20T17:01:48.130Z,99344.81
2023-03-20T17:04:23.910Z,99341.16
2023-03-20T17:07:00.968Z,99344.47
2023-03-20T17:09:34.299Z,99344.81
2023-03-20T17:12:16.056Z,99349.44
2023-03-20T17:14:50.257Z,99346.53
2023-03-20T17:17:25.102Z,99351.03
2023-03-20T17:19:59.598Z,99345.69
2023-03-20T17:22:33.516Z,99343.41
2023-03-20T17:25:07.790Z,99344.09
2023-03-20T17:27:40.954Z,99353.28
2023-03-20T17:30:19.472Z,99351.88
2023-03-20T17:32:52.934Z,99350.50
2023-03-20T17:35:25.804Z,99348.09
2023-03-20T17:37:58.718Z,99353.25
2023-03-20T17:40:31.722Z,99343.78
2023-03-20T17:43:04.565Z,99351.09
2023-03-20T17:45:38.950Z,99354.38
2023-03-20T17:48:37.076Z,99351.91
2023-03-20T17:51:11.674Z,99350.78
2023-03-20T17:53:44.881Z,99353.78
2023-03-20T17:56:17.899Z,99346.47
2023-03-20T17:58:50.905Z,99359.81
2023-03-20T18:01:25.396Z,99351.47
2023-03-20T18:03:58.272Z,99359.56
2023-03-20T18:06:33.640Z,99356.81
2023-03-20T18:09:08.898Z,99349.28
2023-03-20T18:11:41.893Z,99357.75
2023-03-20T18:14:17.993Z,99359.34
2023-03-20T18:16:52.308Z,99357.88
2023-03-20T18:19:28.385Z,99348.94
2023-03-20T18:22:01.347Z,99345.38
2023-03-20T18:24:34.485Z,99363.91
2023-03-20T18:27:07.935Z,99357.59
2023-03-20T18:29:43.622Z,99354.06
2023-03-20T18:32:17.785Z,99349.72
2023-03-20T18:34:50.715Z,99357.38
2023-03-20T18:37:23.481Z,99357.47
2023-03-20T18:39:57.802Z,99360.81
2023-03-20T18:42:30.860Z,99352.91
2023-03-20T18:45:03.622Z,99357.97
2023-03-20T18:47:37.804Z,99349.78
2023-03-20T18:50:23.654Z,99358.75
2023-03-20T18:52:58.334Z,99355.97
2023-03-20T18:55:32.386Z,99353.72
2023-03-20T18:58:06.557Z,99349.50
2023-03-20T19:00:42.968Z,99352.56
2023-03-20T19:03:17.304Z,99356.19
2023-03-20T19:05:50.458Z,99353.53
2023-03-20T19:08:23.637Z,99352.50
2023-03-20T19:10:56.797Z,99350.31
2023-03-20T19:13:29.770Z,99352.63
2023-03-20T19:16:02.728Z,99351.22
2023-03-20T19:18:39.947Z,99366.03
2023-03-20T19:21:13.221Z,99365.13
2023-03-20T19:23:46.488Z,99361.78
2023-03-20T19:26:21.034Z,99363.44
2023-03-20T19:28:54.904Z,99366.41
2023-03-20T19:31:28.485Z,99355.59
2023-03-20T19:34:03.184Z,99369.06
2023-03-20T19:36:38.105Z,99367.03
2023-03-20T19:39:15.274Z,99370.66
2023-03-20T19:41:50.092Z,99366.84
2023-03-20T19:44:22.965Z,99369.94
2023-03-20T19:46:56.500Z,99369.69
2023-03-20T19:49:33.017Z,99375.22
2023-03-20T19:52:07.082Z,99383.03
2023-03-20T19:54:56.245Z,99383.03
2023-03-20T19:57:34.885Z,99391.41
2023-03-20T20:00:54.401Z,99393.53
2023-03-20T20:03:03.379Z,99392.69
2023-03-20T20:05:39.486Z,99382.75
2023-03-20T20:08:26.161Z,99387.53
2023-03-20T20:11:02.658Z,99376.47
2023-03-20T20:13:50.748Z,99391.72
2023-03-20T20:16:28.303Z,99371.94
2023-03-20T20:19:01.296Z,99378.59
2023-03-20T20:24:29.257Z,99376.59
2023-03-20T20:27:18.616Z,99383.94
2023-03-20T20:29:53.187Z,99387.41
2023-03-20T20:32:28.010Z,99371.69
2023-03-20T20:38:36.736Z,99381.16
2023-03-20T20:40:50.868Z,99369.56
2023-03-20T20:43:50.746Z,99376.97
2023-03-20T20:46:17.134Z,99375.44
2023-03-20T20:48:52.200Z,99373.63
2023-03-20T20:51:25.341Z,99374.47
2023-03-20T20:53:59.657Z,99378.16
2023-03-20T20:56:32.572Z,99370.44
2023-03-20T20:59:05.748Z,99361.75
2023-03-20T21:01:38.854Z,99372.59
2023-03-20T21:04:11.916Z,99378.44
2023-03-20T21:07:08.165Z,99377.69
2023-03-20T21:09:39.453Z,99378.28
2023-03-20T21:12:26.638Z,99381.13
2023-03-20T21:15:07.185Z,99383.88
2023-03-20T21:17:50.428Z,99384.59
2023-03-20T21:20:30.932Z,99389.09
2023-03-20T21:23:03.708Z,99391.41
2023-03-20T21:25:41.192Z,99393.53
2023-03-20T21:28:15.339Z,99389.41
2023-03-20T21:31:12.558Z,99394.09
2023-03-20T21:33:41.125Z,99387.72
2023-03-20T21:36:14.187Z,99398.56
2023-03-20T21:39:06.807Z,99389.88
2023-03-20T21:41:42.670Z,99389.59
2023-03-20T21:44:21.820Z,99391.25
2023-03-20T21:53:59.014Z,99391.97
2023-03-20T21:56:41.891Z,99394.38
2023-03-20T22:02:09.872Z,99396.06
2023-03-20T22:05:18.702Z,99389.56
2023-03-20T22:07:56.288Z,99389.47
2023-03-20T22:14:13.383Z,99392.44
2023-03-20T22:16:57.829Z,99396.28
2023-03-20T22:22:37.406Z,99394.38
2023-03-20T22:37:09.316Z,99413.84
2023-03-20T22:39:58.564Z,99405.53
2023-03-20T22:45:02.922Z,99412.34
2023-03-20T22:47:36.847Z,99411.59
2023-03-20T22:50:11.964Z,99407.53
2023-03-20T22:52:49.382Z,99405.56
2023-03-20T22:55:25.535Z,99399.50
2023-03-20T22:58:06.891Z,99395.44
2023-03-20T23:00:41.162Z,99393.75
2023-03-20T23:03:25.720Z,99397.94
2023-03-20T23:06:08.495Z,99402.13
2023-03-20T23:08:50.423Z,99400.91
2023-03-20T23:11:25.679Z,99397.44
2023-03-20T23:13:58.458Z,99390.25
2023-03-20T23:16:31.512Z,99393.28
2023-03-20T23:19:04.490Z,99397.06
2023-03-20T23:21:38.805Z,99395.47
2023-03-20T23:24:11.987Z,99392.84
2023-03-20T23:26:44.931Z,99392.41
2023-03-20T23:29:17.712Z,99394.28
2023-03-20T23:31:50.492Z,99391.53
2023-03-20T23:34:23.375Z,99384.59
2023-03-20T23:36:57.638Z,99382.75
2023-03-20T23:39:30.390Z,99383.25
2023-03-20T23:42:14.657Z,99386.66
2023-03-20T23:47:46.697Z,99382.69
2023-03-20T23:50:36.639Z,99391.41
2023-03-20T23:53:20.748Z,99382.09
2023-03-20T23:55:55.708Z,99387.84
2023-03-20T23:58:29.372Z,99391.31
